Time;durP1;ratioP1;P1;durP2;ratioP2;P2;SDS_P1;SDS_P2;PMS_P1;PMS_P2;Temp;Humidity;BMP_temperature;BMP_pressure;BME280_temperature;BME280_humidity;BME280_pressure;Samples;Min_cycle;Max_cycle;Signal;HPM_P1;HPM_P2
2022/06/28 00:00:00;;;;;;;13.87;12.57;;;17.20;99.90;;;;;;5007410;28;20946;-77
2022/06/28 00:02:31;;;;;;;16.17;14.80;;;17.20;99.90;;;;;;4976176;28;20453;-78
2022/06/28 00:04:59;;;;;;;16.13;14.83;;;17.20;99.90;;;;;;5007595;28;20452;-78
2022/06/28 00:07:29;;;;;;;16.57;15.03;;;17.20;99.90;;;;;;4974560;28;20533;-77
2022/06/28 00:09:57;;;;;;;16.80;15.27;;;17.10;99.90;;;;;;5006642;28;20511;-78
2022/06/28 00:12:25;;;;;;;16.00;14.60;;;17.10;99.90;;;;;;5006958;28;20450;-78
2022/06/28 00:17:41;;;;;;;15.90;14.50;;;17.10;99.90;;;;;;4975816;28;20396;-77
2022/06/28 00:20:10;;;;;;;17.07;15.67;;;17.10;99.90;;;;;;4975995;28;20419;-78
2022/06/28 00:22:39;;;;;;;18.23;15.10;;;17.10;99.90;;;;;;5006630;28;20473;-78
2022/06/28 00:25:08;;;;;;;17.00;15.40;;;17.10;99.90;;;;;;4973995;28;20456;-78
2022/06/28 00:27:36;;;;;;;15.60;14.40;;;17.10;99.90;;;;;;4975584;28;20441;-78
2022/06/28 00:30:07;;;;;;;14.10;12.97;;;17.10;99.90;;;;;;4973962;28;20906;-78
2022/06/28 00:32:36;;;;;;;14.90;12.87;;;17.00;99.90;;;;;;4973954;28;20513;-78
2022/06/28 00:35:06;;;;;;;13.97;12.57;;;17.00;99.90;;;;;;4974231;28;20472;-78
2022/06/28 00:37:35;;;;;;;14.23;12.77;;;16.90;99.90;;;;;;5007022;28;20456;-78
2022/06/28 00:40:03;;;;;;;14.10;12.87;;;16.90;99.90;;;;;;5006641;28;20432;-78
2022/06/28 00:42:33;;;;;;;13.03;12.03;;;16.90;99.90;;;;;;5006688;28;21043;-78
2022/06/28 00:45:01;;;;;;;12.40;11.30;;;16.90;99.90;;;;;;4974110;28;20458;-78
2022/06/28 00:47:31;;;;;;;12.50;11.40;;;16.80;99.90;;;;;;4974891;28;20520;-77
2022/06/28 00:50:00;;;;;;;12.43;11.20;;;16.80;99.90;;;;;;4975653;28;20421;-78
2022/06/28 00:52:28;;;;;;;12.23;11.20;;;16.80;99.90;;;;;;5006482;28;20861;-78
2022/06/28 00:54:57;;;;;;;12.07;11.00;;;16.70;99.90;;;;;;5007392;28;20492;-78
2022/06/28 00:57:26;;;;;;;12.73;11.50;;;16.70;99.90;;;;;;4974347;28;20440;-78
2022/06/28 00:59:54;;;;;;;12.70;11.60;;;16.60;99.90;;;;;;5006857;28;20443;-78
2022/06/28 01:02:30;;;;;;;12.00;10.80;;;16.60;99.90;;;;;;4973755;28;20432;-78
2022/06/28 01:04:58;;;;;;;13.53;12.30;;;16.60;99.90;;;;;;5006190;28;20479;-78
2022/06/28 01:07:27;;;;;;;11.33;10.30;;;16.60;99.90;;;;;;4975525;28;20424;-78
2022/06/28 01:09:55;;;;;;;12.50;10.50;;;16.60;99.90;;;;;;5006649;28;20457;-78
2022/06/28 01:12:24;;;;;;;11.50;10.53;;;16.60;99.90;;;;;;5006732;28;20446;-78
2022/06/28 01:14:52;;;;;;;13.00;11.97;;;16.50;99.90;;;;;;4973690;28;20503;-78
2022/06/28 01:17:33;;;;;;;13.27;12.27;;;16.50;99.90;;;;;;4973904;28;20458;-78
2022/06/28 01:20:21;;;;;;;12.10;11.10;;;16.50;99.90;;;;;;4975698;28;20446;-78
2022/06/28 01:23:10;;;;;;;13.53;12.13;;;16.50;99.90;;;;;;4977182;28;20459;-78
2022/06/28 01:25:38;;;;;;;12.97;11.70;;;16.50;99.90;;;;;;5009874;28;20467;-78
2022/06/28 01:28:07;;;;;;;13.00;11.90;;;16.40;99.90;;;;;;5009787;28;20501;-78
2022/06/28 01:30:36;;;;;;;13.73;12.60;;;16.40;99.90;;;;;;4977095;28;20428;-78
2022/06/28 01:33:14;;;;;;;14.13;12.70;;;16.40;99.90;;;;;;5010504;28;20447;-78
2022/06/28 01:35:43;;;;;;;14.73;13.33;;;16.40;99.90;;;;;;4977382;28;20483;-78
2022/06/28 01:38:13;;;;;;;12.87;11.77;;;16.40;99.90;;;;;;5009648;28;20509;-78
2022/06/28 01:40:45;;;;;;;12.70;11.57;;;16.40;99.90;;;;;;4977151;28;20552;-78
2022/06/28 01:43:17;;;;;;;14.47;13.17;;;16.40;99.90;;;;;;4977701;28;20997;-78
2022/06/28 01:45:48;;;;;;;15.00;13.50;;;16.40;99.90;;;;;;5010298;28;20428;-78
2022/06/28 01:48:18;;;;;;;14.07;12.87;;;16.30;99.90;;;;;;4977265;28;20525;-78
2022/06/28 01:51:01;;;;;;;14.70;13.60;;;16.30;99.90;;;;;;5010169;28;20518;-78
2022/06/28 01:53:32;;;;;;;13.63;12.43;;;16.30;99.90;;;;;;5009608;28;20446;-78
2022/06/28 01:56:17;;;;;;;13.87;12.70;;;16.30;99.90;;;;;;4976966;28;20485;-78
2022/06/28 01:58:58;;;;;;;14.10;12.80;;;16.20;99.90;;;;;;5009579;28;20464;-78
2022/06/28 02:01:36;;;;;;;14.87;13.57;;;16.20;99.90;;;;;;4977166;28;20954;-78
2022/06/28 02:04:19;;;;;;;15.67;14.07;;;16.20;99.90;;;;;;5009503;28;21014;-78
2022/06/28 02:06:50;;;;;;;14.03;12.60;;;16.20;99.90;;;;;;5009794;28;20423;-78
2022/06/28 02:09:21;;;;;;;13.80;12.70;;;16.20;99.90;;;;;;5009558;28;20481;-78
2022/06/28 02:11:50;;;;;;;16.00;14.70;;;16.20;99.90;;;;;;5009278;28;20441;-78
2022/06/28 02:14:23;;;;;;;15.40;14.00;;;16.20;99.90;;;;;;5009616;28;20933;-78
2022/06/28 02:16:56;;;;;;;14.10;12.90;;;16.20;99.90;;;;;;5009270;28;20499;-78
2022/06/28 02:19:26;;;;;;;16.13;14.83;;;16.20;99.90;;;;;;4976829;28;20487;-78
2022/06/28 02:21:55;;;;;;;15.80;14.60;;;16.20;99.90;;;;;;4977203;28;20442;-78
2022/06/28 02:24:30;;;;;;;16.63;15.00;;;16.20;99.90;;;;;;5008850;28;20890;-78
2022/06/28 02:26:58;;;;;;;17.20;15.60;;;16.20;99.90;;;;;;5009033;28;20949;-78
2022/06/28 02:29:26;;;;;;;19.37;17.37;;;16.10;99.90;;;;;;4976694;28;20910;-78
2022/06/28 02:31:54;;;;;;;17.60;16.00;;;16.10;99.90;;;;;;4977623;28;20412;-78
2022/06/28 02:42:39;;;;;;;20.63;18.83;;;16.00;99.90;;;;;;4970541;28;20922;-78
2022/06/28 02:45:08;;;;;;;21.60;19.67;;;15.90;99.90;;;;;;5008818;28;20875;-78
2022/06/28 02:47:37;;;;;;;20.77;18.97;;;15.90;99.90;;;;;;4976728;28;20608;-79
2022/06/28 02:50:07;;;;;;;23.30;21.10;;;15.90;99.90;;;;;;5009041;28;20432;-78
2022/06/28 02:52:35;;;;;;;23.80;21.70;;;15.80;99.90;;;;;;4976925;28;20453;-78
2022/06/28 02:55:07;;;;;;;24.47;22.00;;;15.80;99.90;;;;;;4976457;28;20512;-78
2022/06/28 02:57:37;;;;;;;25.03;22.60;;;15.80;99.90;;;;;;5008562;28;20492;-78
2022/06/28 03:00:08;;;;;;;25.63;23.00;;;15.80;99.90;;;;;;4975676;28;20508;-78
2022/06/28 03:02:37;;;;;;;24.10;22.00;;;15.70;99.90;;;;;;5008641;28;20497;-78
2022/06/28 03:05:09;;;;;;;25.77;23.47;;;15.70;99.90;;;;;;4975958;28;20527;-78
2022/06/28 03:07:38;;;;;;;27.90;25.30;;;15.70;99.90;;;;;;5008003;28;20424;-78
2022/06/28 03:10:10;;;;;;;27.07;24.80;;;15.70;99.90;;;;;;4976105;28;20970;-78
2022/06/28 03:12:39;;;;;;;27.03;24.43;;;15.70;99.90;;;;;;4975931;28;20506;-78
2022/06/28 03:15:11;;;;;;;26.93;24.23;;;15.60;99.90;;;;;;4975719;28;20456;-78
2022/06/28 03:17:41;;;;;;;26.50;24.10;;;15.60;99.90;;;;;;4975968;28;20477;-78
2022/06/28 03:20:10;;;;;;;24.53;22.43;;;15.60;99.90;;;;;;4976752;28;20545;-78
2022/06/28 03:22:39;;;;;;;26.60;24.37;;;15.60;99.90;;;;;;5008103;28;20453;-79
2022/06/28 03:25:10;;;;;;;27.20;24.80;;;15.60;99.90;;;;;;4975786;28;20477;-78
2022/06/28 03:27:39;;;;;;;28.70;26.17;;;15.50;99.90;;;;;;4975749;28;20445;-78
2022/06/28 03:30:09;;;;;;;28.40;25.70;;;15.50;99.90;;;;;;5008101;28;20484;-78
2022/06/28 03:32:42;;;;;;;28.00;25.60;;;15.50;99.90;;;;;;5009043;28;20445;-78
2022/06/28 03:35:13;;;;;;;29.50;26.77;;;15.50;99.90;;;;;;4975516;28;20790;-78
2022/06/28 03:37:42;;;;;;;29.07;26.67;;;15.50;99.90;;;;;;4975346;28;21042;-78
2022/06/28 03:40:13;;;;;;;31.03;28.20;;;15.50;99.90;;;;;;4975398;28;20469;-78
2022/06/28 03:42:47;;;;;;;30.37;27.87;;;15.40;99.90;;;;;;4975468;28;20424;-78
2022/06/28 03:45:16;;;;;;;33.00;29.83;;;15.40;99.90;;;;;;5006741;28;20497;-78
2022/06/28 03:47:57;;;;;;;31.10;28.47;;;15.40;99.90;;;;;;4975231;28;20477;-78
2022/06/28 03:51:01;;;;;;;35.43;31.80;;;15.40;99.90;;;;;;4975947;28;20450;-78
2022/06/28 03:53:41;;;;;;;34.10;31.20;;;15.40;99.90;;;;;;4976027;28;20396;-78
2022/06/28 03:56:23;;;;;;;36.10;33.00;;;15.40;99.90;;;;;;4975359;28;20461;-78
2022/06/28 03:58:51;;;;;;;36.60;33.20;;;15.40;99.90;;;;;;4974870;28;20473;-78
2022/06/28 04:01:19;;;;;;;37.43;33.77;;;15.40;99.90;;;;;;5008063;28;20428;-78
2022/06/28 04:03:48;;;;;;;38.47;34.87;;;15.30;99.90;;;;;;4975887;28;20481;-78
2022/06/28 04:06:16;;;;;;;38.23;34.60;;;15.30;99.90;;;;;;5008799;28;20460;-78
2022/06/28 04:08:46;;;;;;;37.07;33.67;;;15.30;99.90;;;;;;5008367;28;21024;-78
2022/06/28 04:11:14;;;;;;;37.10;33.67;;;15.30;99.90;;;;;;4975861;28;20428;-78
2022/06/28 04:13:48;;;;;;;38.60;35.10;;;15.30;99.90;;;;;;5009155;28;20468;-78
2022/06/28 04:16:18;;;;;;;36.77;33.27;;;15.30;99.90;;;;;;4975119;28;20442;-79
2022/06/28 04:18:47;;;;;;;44.17;40.17;;;15.20;99.90;;;;;;4975262;28;20508;-78
2022/06/28 04:21:26;;;;;;;37.20;33.73;;;15.20;99.90;;;;;;4975695;28;20529;-78
2022/06/28 04:24:29;;;;;;;35.90;32.67;;;15.20;99.90;;;;;;4978845;28;20965;-78
2022/06/28 04:27:05;;;;;;;35.67;32.47;;;15.20;99.90;;;;;;5008616;28;20515;-78
2022/06/28 04:29:36;;;;;;;35.93;32.30;;;15.20;99.90;;;;;;4975017;28;20478;-79
2022/06/28 04:32:08;;;;;;;36.77;33.17;;;15.20;99.90;;;;;;4975759;28;20441;-78
2022/06/28 04:34:37;;;;;;;36.80;33.20;;;15.20;99.90;;;;;;5008423;28;20796;-78
2022/06/28 04:37:06;;;;;;;46.47;32.53;;;15.20;99.90;;;;;;4974626;28;20450;-78
2022/06/28 04:39:34;;;;;;;36.10;32.53;;;15.20;99.90;;;;;;5007366;28;20473;-78
2022/06/28 04:42:17;;;;;;;37.03;33.37;;;15.20;99.90;;;;;;5007937;28;20562;-78
2022/06/28 04:44:47;;;;;;;35.10;31.90;;;15.20;99.90;;;;;;5007221;28;20882;-78
2022/06/28 04:47:21;;;;;;;35.83;32.30;;;15.20;99.90;;;;;;5007152;28;20453;-78
2022/06/28 04:49:50;;;;;;;36.30;32.90;;;15.20;99.90;;;;;;5006927;28;20481;-78
2022/06/28 04:52:19;;;;;;;35.43;31.97;;;15.30;99.90;;;;;;5006963;28;20864;-78
2022/06/28 04:54:53;;;;;;;33.60;30.07;;;15.30;99.90;;;;;;4974052;28;20449;-78
2022/06/28 04:57:27;;;;;;;36.20;32.63;;;15.30;99.90;;;;;;4974185;28;20468;-78
2022/06/28 05:00:10;;;;;;;36.50;32.70;;;15.30;99.90;;;;;;5006898;28;20469;-78
2022/06/28 05:02:45;;;;;;;36.63;33.00;;;15.40;99.90;;;;;;4974451;28;20460;-78
2022/06/28 05:05:37;;;;;;;34.33;30.73;;;15.40;99.90;;;;;;4975423;28;20461;-78
2022/06/28 05:08:06;;;;;;;33.37;30.20;;;15.40;99.90;;;;;;5006174;28;20440;-78
2022/06/28 05:10:50;;;;;;;34.43;31.10;;;15.40;99.90;;;;;;4973978;28;20472;-78
2022/06/28 05:13:31;;;;;;;33.00;30.00;;;15.40;99.90;;;;;;4973924;28;20518;-78
2022/06/28 05:16:03;;;;;;;30.47;27.60;;;15.50;99.90;;;;;;4974813;28;20434;-78
2022/06/28 05:18:32;;;;;;;32.67;29.13;;;15.50;99.90;;;;;;4975153;28;20469;-78
2022/06/28 05:21:01;;;;;;;32.23;29.03;;;15.50;99.90;;;;;;5006068;28;20429;-78
2022/06/28 05:23:30;;;;;;;30.93;28.03;;;15.60;99.90;;;;;;5006424;28;20454;-78
2022/06/28 05:26:00;;;;;;;31.07;28.13;;;15.60;99.90;;;;;;4974767;28;20838;-78
2022/06/28 05:28:29;;;;;;;32.40;29.00;;;15.70;99.90;;;;;;5005772;28;20665;-78
2022/06/28 05:30:58;;;;;;;28.27;25.67;;;15.70;99.90;;;;;;4974094;28;20456;-78
2022/06/28 05:33:28;;;;;;;28.90;26.10;;;15.80;99.90;;;;;;5006003;28;20450;-78
2022/06/28 05:36:02;;;;;;;28.90;26.27;;;15.80;99.90;;;;;;4975906;28;20430;-78
2022/06/28 05:38:31;;;;;;;29.27;26.57;;;15.90;99.90;;;;;;4974137;28;20497;-79
2022/06/28 05:41:00;;;;;;;27.70;25.13;;;16.00;99.90;;;;;;4980503;28;20542;-80
2022/06/28 05:43:28;;;;;;;27.20;24.77;;;16.10;99.90;;;;;;4979913;28;20477;-80
2022/06/28 05:45:57;;;;;;;28.83;26.23;;;16.30;99.90;;;;;;4980412;28;20469;-80
2022/06/28 05:48:26;;;;;;;25.90;23.43;;;16.50;99.90;;;;;;5012522;28;21013;-80
2022/06/28 05:50:55;;;;;;;27.47;24.97;;;16.70;99.90;;;;;;5013196;28;20428;-79
2022/06/28 05:53:23;;;;;;;25.93;23.50;;;16.90;99.90;;;;;;5011434;28;20420;-80
2022/06/28 05:55:51;;;;;;;22.37;20.47;;;17.10;99.90;;;;;;4980871;28;20416;-80
2022/06/28 05:58:20;;;;;;;23.60;21.50;;;17.30;99.90;;;;;;4978650;28;20557;-80
2022/06/28 06:00:49;;;;;;;23.03;20.83;;;17.50;99.90;;;;;;5011940;28;20957;-79
2022/06/28 06:03:17;;;;;;;22.40;20.30;;;17.70;99.90;;;;;;4978929;28;20436;-80
2022/06/28 06:05:47;;;;;;;22.13;20.23;;;18.00;99.90;;;;;;4979112;28;20469;-80
2022/06/28 06:08:16;;;;;;;21.63;19.70;;;18.20;99.90;;;;;;4981108;28;20465;-80
2022/06/28 06:10:46;;;;;;;21.30;19.43;;;18.50;99.90;;;;;;4982345;28;20504;-80
2022/06/28 06:13:15;;;;;;;18.00;16.30;;;18.70;99.90;;;;;;4982690;28;20453;-80
2022/06/28 06:15:44;;;;;;;19.17;17.47;;;18.80;99.90;;;;;;5015786;28;20462;-80
2022/06/28 06:18:12;;;;;;;18.40;16.90;;;19.00;99.90;;;;;;4983354;28;20473;-80
2022/06/28 06:20:41;;;;;;;17.17;15.73;;;19.20;99.90;;;;;;4982902;28;20450;-80
2022/06/28 06:23:10;;;;;;;17.07;15.43;;;19.40;99.90;;;;;;4984041;28;20430;-81
2022/06/28 06:26:08;;;;;;;16.27;14.73;;;19.60;99.90;;;;;;4999171;28;20511;-81
2022/06/28 06:28:36;;;;;;;15.97;14.43;;;19.80;99.90;;;;;;5014949;28;20474;-80
2022/06/28 06:31:07;;;;;;;15.77;14.37;;;19.90;99.90;;;;;;5014670;28;20864;-80
2022/06/28 06:34:12;;;;;;;14.03;12.80;;;20.10;99.90;;;;;;5001795;28;20453;-80
2022/06/28 06:36:50;;;;;;;12.63;11.43;;;20.30;99.90;;;;;;4983571;28;20441;-80
2022/06/28 06:39:21;;;;;;;13.63;12.33;;;20.50;99.90;;;;;;4982948;28;21014;-80
2022/06/28 06:41:50;;;;;;;12.47;11.37;;;20.70;99.90;;;;;;5014657;28;20831;-80
2022/06/28 06:44:18;;;;;;;12.40;11.30;;;20.80;99.90;;;;;;5014458;28;20480;-80
2022/06/28 06:46:50;;;;;;;10.97;10.07;;;20.90;99.90;;;;;;4982844;28;20481;-80
2022/06/28 06:49:19;;;;;;;12.60;11.50;;;21.00;99.90;;;;;;5015161;28;20472;-80
2022/06/28 06:51:48;;;;;;;11.37;10.37;;;21.20;99.90;;;;;;5014716;28;20830;-80
2022/06/28 06:54:17;;;;;;;11.10;10.17;;;21.30;99.90;;;;;;4982401;28;20878;-80
2022/06/28 06:56:48;;;;;;;13.30;10.57;;;21.40;99.90;;;;;;5015245;28;20516;-80
2022/06/28 06:59:17;;;;;;;10.70;9.80;;;21.50;99.90;;;;;;5016167;28;20496;-80
2022/06/28 07:01:51;;;;;;;10.93;10.03;;;21.60;99.90;;;;;;4982428;28;20887;-81
2022/06/28 07:04:27;;;;;;;9.60;8.70;;;21.70;99.90;;;;;;4980845;28;20446;-80
2022/06/28 07:07:01;;;;;;;10.50;9.13;;;21.90;99.90;;;;;;4982559;28;20524;-81
2022/06/28 07:09:29;;;;;;;10.07;8.87;;;22.10;99.90;;;;;;4982436;28;20470;-81
2022/06/28 07:12:00;;;;;;;9.30;8.23;;;22.10;99.90;;;;;;4980941;28;21037;-80
2022/06/28 07:14:28;;;;;;;11.07;8.83;;;22.20;99.90;;;;;;4981005;28;20445;-80
2022/06/28 07:17:01;;;;;;;10.50;9.50;;;22.30;99.90;;;;;;4981139;28;20446;-81
2022/06/28 07:19:30;;;;;;;9.83;9.03;;;22.30;99.90;;;;;;5012816;28;20561;-81
2022/06/28 07:21:58;;;;;;;8.30;7.43;;;22.40;99.90;;;;;;5013955;28;20497;-81
2022/06/28 07:24:26;;;;;;;7.50;6.77;;;22.50;99.90;;;;;;4982598;28;20477;-82
2022/06/28 07:26:55;;;;;;;7.73;6.57;;;22.60;99.90;;;;;;4982894;28;20473;-81
2022/06/28 07:29:25;;;;;;;8.33;7.50;;;22.60;99.90;;;;;;4982615;28;20845;-80
2022/06/28 07:31:53;;;;;;;7.53;6.80;;;22.60;99.90;;;;;;4982085;28;20461;-82
2022/06/28 07:34:22;;;;;;;8.13;7.30;;;22.70;99.90;;;;;;4981013;28;20504;-81
2022/06/28 07:36:51;;;;;;;10.00;7.27;;;22.70;99.90;;;;;;4983700;28;20442;-81
2022/06/28 07:39:19;;;;;;;7.90;6.63;;;22.80;99.90;;;;;;4982366;28;20480;-81
2022/06/28 07:42:07;;;;;;;12.00;10.80;;;22.80;99.90;;;;;;4984203;28;20453;-81
2022/06/28 07:45:16;;;;;;;10.40;9.60;;;22.90;99.90;;;;;;5020768;28;20527;-81
2022/06/28 07:47:47;;;;;;;13.67;12.40;;;23.00;99.90;;;;;;5004014;28;20471;-81
2022/06/28 07:53:08;;;;;;;15.83;14.43;;;22.90;99.90;;;;;;5013733;28;20481;-82
2022/06/28 07:55:59;;;;;;;17.10;15.70;;;22.80;99.90;;;;;;4981962;28;20537;-81
2022/06/28 07:58:34;;;;;;;16.23;14.97;;;22.70;99.90;;;;;;4981319;28;20505;-81
2022/06/28 08:01:08;;;;;;;15.93;14.50;;;22.60;99.90;;;;;;5013848;28;20437;-83
2022/06/28 08:03:37;;;;;;;17.13;15.60;;;22.50;99.90;;;;;;5013645;28;20501;-81
2022/06/28 08:06:05;;;;;;;16.20;14.90;;;22.50;99.90;;;;;;4980635;28;20465;-81
2022/06/28 08:08:43;;;;;;;18.07;16.60;;;22.50;99.90;;;;;;4981142;28;20467;-81
2022/06/28 08:11:14;;;;;;;18.50;17.03;;;22.40;99.90;;;;;;4980128;28;20460;-81
2022/06/28 08:13:43;;;;;;;16.73;15.37;;;22.50;99.90;;;;;;4981152;28;20975;-81
2022/06/28 08:16:12;;;;;;;19.07;17.50;;;22.60;99.90;;;;;;4980943;28;20449;-81
2022/06/28 08:18:42;;;;;;;18.80;17.27;;;22.70;99.90;;;;;;4980504;28;20466;-82
2022/06/28 08:21:11;;;;;;;19.23;17.73;;;22.60;99.90;;;;;;4981504;28;21058;-82
2022/06/28 08:23:39;;;;;;;20.07;18.63;;;22.60;99.90;;;;;;4978877;28;20466;-82
2022/06/28 08:26:08;;;;;;;20.00;18.47;;;22.50;99.90;;;;;;4984571;28;20474;-83
2022/06/28 08:28:36;;;;;;;19.33;17.83;;;22.50;99.90;;;;;;5016136;28;20484;-82
2022/06/28 08:31:05;;;;;;;17.40;16.10;;;22.40;99.90;;;;;;5015593;28;20493;-83
2022/06/28 08:33:35;;;;;;;19.70;18.10;;;22.60;99.90;;;;;;4985085;28;20446;-83
2022/06/28 08:36:03;;;;;;;19.80;18.17;;;22.60;99.90;;;;;;4982892;28;20497;-83
2022/06/28 08:38:32;;;;;;;21.33;17.80;;;22.50;99.90;;;;;;4983931;28;20468;-83
2022/06/28 08:41:01;;;;;;;19.90;18.30;;;22.40;99.90;;;;;;4984389;28;20441;-82
2022/06/28 08:43:32;;;;;;;19.80;18.20;;;22.40;99.90;;;;;;5014919;28;20454;-83
2022/06/28 08:46:02;;;;;;;19.33;17.73;;;22.40;99.90;;;;;;5015434;28;20505;-82
2022/06/28 08:48:39;;;;;;;20.00;18.40;;;22.30;99.90;;;;;;4982165;28;20917;-83
2022/06/28 08:51:10;;;;;;;20.07;18.00;;;22.30;99.90;;;;;;4981464;28;20453;-83
2022/06/28 08:53:41;;;;;;;20.50;19.00;;;22.30;99.90;;;;;;4981970;28;20442;-82
2022/06/28 08:56:10;;;;;;;18.00;16.60;;;22.40;99.90;;;;;;4981558;28;20518;-82
2022/06/28 08:58:42;;;;;;;18.40;16.90;;;22.40;99.90;;;;;;4983861;28;21039;-82
2022/06/28 09:01:12;;;;;;;15.90;14.77;;;22.50;99.90;;;;;;4983965;28;20430;-82
2022/06/28 09:03:41;;;;;;;15.13;13.73;;;22.70;99.90;;;;;;4982074;28;20452;-82
2022/06/28 09:06:11;;;;;;;15.30;14.10;;;22.90;99.90;;;;;;4981689;28;20453;-81
2022/06/28 09:08:40;;;;;;;12.70;11.70;;;23.00;99.90;;;;;;4983616;28;20870;-81
2022/06/28 09:11:09;;;;;;;13.30;12.10;;;23.20;99.90;;;;;;4982362;28;20476;-82
2022/06/28 09:13:38;;;;;;;12.20;11.17;;;23.30;99.90;;;;;;4988058;28;20462;-82
2022/06/28 09:16:06;;;;;;;13.40;12.47;;;23.40;99.90;;;;;;4991416;28;20485;-83
2022/06/28 09:18:47;;;;;;;14.57;11.13;;;23.50;99.90;;;;;;4997041;28;20465;-83
2022/06/28 09:21:18;;;;;;;12.20;11.10;;;23.60;99.90;;;;;;4998471;28;20437;-83
2022/06/28 09:23:50;;;;;;;10.87;10.07;;;23.70;99.90;;;;;;4996695;28;20528;-83
2022/06/28 09:26:20;;;;;;;13.53;12.50;;;23.80;99.90;;;;;;4991796;28;20445;-84
2022/06/28 09:28:50;;;;;;;12.00;11.10;;;23.80;99.90;;;;;;4978680;28;20520;-84
2022/06/28 09:31:21;;;;;;;12.00;11.10;;;23.80;99.80;;;;;;4989359;28;20524;-83
2022/06/28 09:34:04;;;;;;;9.93;9.17;;;23.80;99.70;;;;;;4988369;28;20449;-83
2022/06/28 09:36:37;;;;;;;10.53;9.83;;;24.00;99.70;;;;;;4986320;28;20894;-83
2022/06/28 09:39:14;;;;;;;7.67;7.10;;;24.20;99.60;;;;;;4982285;28;20473;-83
2022/06/28 09:41:50;;;;;;;8.60;7.80;;;24.30;99.40;;;;;;4988699;28;20461;-84
2022/06/28 09:44:38;;;;;;;6.77;6.23;;;24.30;98.90;;;;;;4991922;28;20460;-84
2022/06/28 09:47:07;;;;;;;6.30;5.70;;;24.40;98.60;;;;;;4991501;28;20661;-84
2022/06/28 09:49:47;;;;;;;6.20;5.80;;;24.40;98.30;;;;;;4991245;28;20504;-84
2022/06/28 09:52:19;;;;;;;8.40;7.73;;;24.30;98.10;;;;;;4992876;28;20460;-85
2022/06/28 09:54:53;;;;;;;6.00;5.40;;;24.20;98.00;;;;;;4993738;28;20529;-83
2022/06/28 09:57:22;;;;;;;6.83;6.33;;;24.00;97.90;;;;;;4993029;28;20468;-84
2022/06/28 09:59:54;;;;;;;7.73;7.10;;;23.90;97.80;;;;;;4992617;28;20485;-84
2022/06/28 10:02:23;;;;;;;6.67;6.20;;;23.80;97.60;;;;;;4991251;28;20496;-85
2022/06/28 10:04:52;;;;;;;6.87;6.27;;;23.70;97.50;;;;;;4992025;28;20437;-84
2022/06/28 10:07:23;;;;;;;6.73;6.23;;;23.60;97.60;;;;;;4989908;28;20470;-84
2022/06/28 10:09:53;;;;;;;6.77;6.13;;;23.50;97.50;;;;;;4990465;28;20475;-85
2022/06/28 10:15:09;;;;;;;7.23;6.63;;;23.40;97.40;;;;;;4988882;28;20492;-84
2022/06/28 10:17:46;;;;;;;7.87;7.17;;;23.30;97.30;;;;;;4991229;28;20456;-85
2022/06/28 10:20:20;;;;;;;8.67;7.40;;;23.20;97.30;;;;;;4991744;28;20449;-85
2022/06/28 10:22:50;;;;;;;7.20;6.23;;;23.20;97.20;;;;;;4988780;28;20449;-85
2022/06/28 10:25:26;;;;;;;5.60;5.20;;;23.30;97.30;;;;;;4989457;28;20488;-85
2022/06/28 10:27:56;;;;;;;4.47;4.17;;;23.40;97.20;;;;;;4987428;28;20492;-84
2022/06/28 10:30:27;;;;;;;5.53;4.83;;;23.40;96.90;;;;;;4987380;28;20453;-85
2022/06/28 10:32:57;;;;;;;4.70;4.30;;;23.40;96.70;;;;;;4989224;28;20437;-85
2022/06/28 10:36:01;;;;;;;4.90;4.50;;;23.40;96.50;;;;;;4986059;28;21055;-86
2022/06/28 10:38:31;;;;;;;4.90;4.43;;;23.30;96.40;;;;;;4982592;28;20473;-86
2022/06/28 10:41:16;;;;;;;4.80;4.40;;;23.30;96.50;;;;;;4981082;28;20489;-86
2022/06/28 10:43:47;;;;;;;5.30;4.20;;;23.30;96.50;;;;;;4981476;28;20445;-85
2022/06/28 10:46:16;;;;;;;5.50;5.03;;;23.40;96.50;;;;;;4981203;28;20446;-86
2022/06/28 10:49:08;;;;;;;5.43;4.10;;;23.50;96.80;;;;;;4982375;28;20541;-85
2022/06/28 10:51:56;;;;;;;5.07;4.50;;;23.70;96.40;;;;;;4981284;28;20456;-86
2022/06/28 10:54:26;;;;;;;5.20;3.93;;;23.80;96.50;;;;;;4981079;28;20477;-86
2022/06/28 10:56:56;;;;;;;3.23;2.97;;;24.00;96.40;;;;;;4980386;28;20544;-86
2022/06/28 10:59:36;;;;;;;4.97;3.37;;;24.10;96.10;;;;;;4980152;28;20555;-86
2022/06/28 11:02:06;;;;;;;3.90;3.50;;;24.10;95.70;;;;;;4980310;28;20454;-86
2022/06/28 11:04:34;;;;;;;4.90;2.97;;;24.10;95.50;;;;;;4980256;28;20452;-85
2022/06/28 11:07:08;;;;;;;3.30;2.63;;;24.00;95.10;;;;;;4979706;28;20516;-85
2022/06/28 11:10:11;;;;;;;4.10;2.90;;;23.90;94.90;;;;;;4978195;28;20469;-85
2022/06/28 11:12:41;;;;;;;3.53;3.10;;;23.80;94.70;;;;;;4978599;28;20453;-85
2022/06/28 11:15:12;;;;;;;3.73;2.50;;;23.70;94.80;;;;;;4979837;28;20437;-85
2022/06/28 11:17:42;;;;;;;3.10;2.70;;;23.80;94.70;;;;;;4978460;28;20433;-85
2022/06/28 11:20:12;;;;;;;3.83;3.53;;;24.00;94.70;;;;;;4979038;28;20492;-85
2022/06/28 11:22:44;;;;;;;4.17;3.77;;;24.00;94.50;;;;;;4978665;28;20512;-85
2022/06/28 11:25:15;;;;;;;3.17;2.87;;;24.00;94.40;;;;;;4988586;28;20449;-84
2022/06/28 11:27:48;;;;;;;5.37;3.83;;;23.90;94.20;;;;;;4988942;28;20518;-84
2022/06/28 11:30:17;;;;;;;3.67;2.80;;;23.90;94.20;;;;;;4990169;28;20822;-84
2022/06/28 11:32:48;;;;;;;3.07;2.77;;;23.80;94.20;;;;;;4989499;28;20465;-85
2022/06/28 11:35:19;;;;;;;3.07;2.53;;;23.80;94.40;;;;;;4989565;28;20446;-84
2022/06/28 11:37:50;;;;;;;3.20;2.60;;;24.00;94.40;;;;;;4987891;28;20912;-85
2022/06/28 11:40:21;;;;;;;3.20;2.73;;;24.10;94.50;;;;;;4989027;28;20446;-84
2022/06/28 11:43:01;;;;;;;3.67;2.60;;;24.20;94.20;;;;;;4988698;28;20504;-85
2022/06/28 11:45:30;;;;;;;2.50;2.30;;;24.30;93.80;;;;;;4988259;28;20441;-85
2022/06/28 11:48:04;;;;;;;2.57;2.37;;;24.20;93.60;;;;;;4988860;28;20824;-84
2022/06/28 11:50:42;;;;;;;3.30;2.37;;;24.20;93.50;;;;;;4985718;28;20500;-85
2022/06/28 11:53:12;;;;;;;2.97;2.33;;;24.20;93.40;;;;;;4980921;28;20453;-85
2022/06/28 11:55:43;;;;;;;2.70;1.90;;;24.20;93.30;;;;;;4979526;28;20454;-85
2022/06/28 11:58:14;;;;;;;2.27;2.07;;;24.10;93.20;;;;;;4980883;28;20996;-85
2022/06/28 12:01:02;;;;;;;2.90;2.23;;;24.10;93.20;;;;;;4978797;28;20967;-85
2022/06/28 12:03:31;;;;;;;3.73;2.23;;;24.20;93.20;;;;;;4979567;28;20442;-86
2022/06/28 12:06:01;;;;;;;4.30;2.77;;;24.30;93.20;;;;;;4979118;28;20464;-85
2022/06/28 12:08:43;;;;;;;3.80;2.30;;;24.30;92.90;;;;;;4984817;28;21053;-85
2022/06/28 12:11:28;;;;;;;3.20;2.00;;;24.20;92.70;;;;;;4980508;28;20785;-85
2022/06/28 12:13:58;;;;;;;4.17;2.60;;;24.20;92.60;;;;;;4979249;28;20426;-85
2022/06/28 12:16:32;;;;;;;3.23;2.27;;;24.20;92.60;;;;;;4980283;28;20417;-86
2022/06/28 12:19:00;;;;;;;3.17;2.37;;;24.20;92.70;;;;;;4977674;28;20469;-85
2022/06/28 12:21:29;;;;;;;3.00;1.87;;;24.20;92.80;;;;;;4976884;28;21042;-86
2022/06/28 12:24:00;;;;;;;2.63;2.40;;;24.20;92.70;;;;;;4978477;28;20854;-85
2022/06/28 12:26:46;;;;;;;4.03;1.77;;;24.20;92.40;;;;;;4976626;28;20862;-86
2022/06/28 12:29:15;;;;;;;1.80;1.60;;;24.30;92.20;;;;;;4976828;28;20477;-85
2022/06/28 12:31:44;;;;;;;3.33;1.60;;;24.30;92.30;;;;;;4978183;28;20445;-86
2022/06/28 12:34:15;;;;;;;1.90;1.70;;;24.30;92.30;;;;;;5009580;28;20931;-86
2022/06/28 12:36:44;;;;;;;4.67;1.57;;;24.30;92.30;;;;;;4977081;28;20916;-85
2022/06/28 12:39:13;;;;;;;3.03;1.67;;;24.30;92.00;;;;;;4976828;28;20876;-85
2022/06/28 12:41:43;;;;;;;2.57;1.60;;;24.30;91.60;;;;;;4976911;28;20473;-85
2022/06/28 12:44:11;;;;;;;3.40;1.50;;;24.30;91.50;;;;;;4976813;28;20450;-85
2022/06/28 12:46:39;;;;;;;5.77;1.60;;;24.30;91.30;;;;;;4978379;28;20460;-87
2022/06/28 12:49:08;;;;;;;2.20;1.50;;;24.20;91.20;;;;;;5011103;28;20484;-86
2022/06/28 12:51:36;;;;;;;3.70;1.90;;;24.20;91.10;;;;;;4977635;28;20488;-86
2022/06/28 12:54:04;;;;;;;2.27;1.83;;;24.20;91.00;;;;;;4977449;28;20800;-86
2022/06/28 12:56:33;;;;;;;2.87;1.43;;;24.20;91.00;;;;;;4977976;28;20581;-86
2022/06/28 12:59:02;;;;;;;2.67;1.97;;;24.30;91.00;;;;;;4978324;28;20481;-86
2022/06/28 13:01:31;;;;;;;3.90;1.50;;;24.40;90.60;;;;;;4979672;28;20430;-86
2022/06/28 13:03:59;;;;;;;3.47;1.53;;;24.50;90.40;;;;;;4980006;28;20896;-87
2022/06/28 13:06:29;;;;;;;2.00;1.60;;;24.50;90.50;;;;;;4978496;28;20453;-84
2022/06/28 13:08:57;;;;;;;1.97;1.50;;;24.60;90.50;;;;;;4976189;28;20893;-85
2022/06/28 13:11:25;;;;;;;1.77;1.17;;;24.60;90.30;;;;;;4976320;28;20450;-85
2022/06/28 13:13:54;;;;;;;3.50;1.30;;;24.70;90.20;;;;;;4976057;28;20453;-85